createdAt,value
2022-10-12T00:00:02.967Z,80.50
2022-10-12T00:02:41.077Z,81.10
2022-10-12T00:05:09.359Z,80.90
2022-10-12T00:07:37.035Z,81.10
2022-10-12T00:10:05.259Z,81.10
2022-10-12T00:12:33.973Z,81.10
2022-10-12T00:15:01.247Z,81.30
2022-10-12T00:17:28.585Z,81.40
2022-10-12T00:19:55.862Z,81.60
2022-10-12T00:22:23.109Z,81.60
2022-10-12T00:24:52.245Z,81.70
2022-10-12T00:27:19.571Z,82.00
2022-10-12T00:29:47.178Z,81.60
2022-10-12T00:32:15.194Z,81.80
2022-10-12T00:34:42.487Z,82.10
2022-10-12T00:37:09.830Z,81.90
2022-10-12T00:39:37.338Z,82.20
2022-10-12T00:42:04.643Z,82.10
2022-10-12T00:44:39.589Z,82.00
2022-10-12T00:47:32.761Z,82.10
2022-10-12T00:50:08.894Z,81.80
2022-10-12T00:53:02.519Z,82.20
2022-10-12T00:55:36.797Z,82.00
2022-10-12T00:58:06.823Z,82.20
2022-10-12T01:00:36.740Z,82.40
2022-10-12T01:03:06.191Z,82.50
2022-10-12T01:05:33.978Z,82.70
2022-10-12T01:08:02.729Z,82.50
2022-10-12T01:10:29.968Z,82.40
2022-10-12T01:12:57.690Z,82.50
2022-10-12T01:15:31.431Z,82.50
2022-10-12T01:18:34.238Z,82.70
2022-10-12T01:21:04.423Z,82.50
2022-10-12T01:23:49.150Z,82.80
2022-10-12T01:26:23.308Z,82.80
2022-10-12T01:29:05.858Z,82.80
2022-10-12T01:31:49.328Z,82.80
2022-10-12T01:34:51.788Z,82.70
2022-10-12T01:37:27.962Z,82.60
2022-10-12T01:39:57.181Z,82.80
2022-10-12T01:42:29.773Z,83.00
2022-10-12T01:45:13.813Z,83.40
2022-10-12T01:47:45.601Z,83.40
2022-10-12T01:50:14.938Z,83.40
2022-10-12T01:53:00.238Z,83.30
2022-10-12T01:55:36.846Z,83.60
2022-10-12T01:58:42.349Z,83.40
2022-10-12T02:01:26.545Z,83.30
2022-10-12T02:04:09.271Z,83.50
2022-10-12T02:06:49.482Z,83.80
2022-10-12T02:09:27.497Z,83.80
2022-10-12T02:11:59.858Z,84.10
2022-10-12T02:14:32.397Z,84.20
2022-10-12T02:17:02.232Z,84.50
2022-10-12T02:19:35.213Z,84.60
2022-10-12T02:22:05.722Z,84.80
2022-10-12T02:24:39.690Z,85.10
2022-10-12T02:27:09.762Z,85.30
2022-10-12T02:29:39.797Z,85.20
2022-10-12T02:32:09.878Z,85.40
2022-10-12T02:35:06.750Z,85.50
2022-10-12T02:37:55.385Z,85.50
2022-10-12T02:40:34.534Z,85.80
2022-10-12T02:43:11.168Z,85.80
2022-10-12T02:45:43.711Z,86.00
2022-10-12T02:48:15.026Z,86.20
2022-10-12T02:50:43.514Z,86.50
2022-10-12T02:53:12.808Z,86.50
2022-10-12T02:55:51.299Z,86.40
2022-10-12T02:58:19.106Z,86.70
2022-10-12T03:00:46.790Z,86.60
2022-10-12T03:03:14.089Z,86.70
2022-10-12T03:05:41.337Z,86.70
2022-10-12T03:08:08.595Z,86.60
2022-10-12T03:10:36.029Z,86.70
2022-10-12T03:13:03.423Z,86.70
2022-10-12T03:15:31.320Z,86.70
2022-10-12T03:17:59.581Z,86.70
2022-10-12T03:20:26.922Z,86.50
2022-10-12T03:22:54.613Z,86.80
2022-10-12T03:25:21.883Z,86.60
2022-10-12T03:27:49.134Z,86.70
2022-10-12T03:30:16.932Z,86.70
2022-10-12T03:32:44.594Z,87.70
2022-10-12T03:35:11.950Z,86.90
2022-10-12T03:37:39.580Z,87.20
2022-10-12T03:40:08.074Z,87.30
2022-10-12T03:42:35.406Z,87.80
2022-10-12T03:45:02.882Z,87.70
2022-10-12T03:47:30.169Z,88.40
2022-10-12T03:49:57.557Z,87.90
2022-10-12T03:52:24.990Z,87.90
2022-10-12T03:54:52.394Z,88.10
2022-10-12T03:57:20.288Z,87.80
2022-10-12T03:59:47.656Z,88.10
2022-10-12T04:02:17.099Z,87.90
2022-10-12T04:04:44.783Z,88.30
2022-10-12T04:07:12.275Z,88.60
2022-10-12T04:09:39.812Z,88.00
2022-10-12T04:12:07.242Z,88.10
2022-10-12T04:14:34.648Z,87.90
2022-10-12T04:17:27.951Z,88.00
2022-10-12T04:19:55.282Z,88.00
2022-10-12T04:22:24.636Z,88.50
2022-10-12T04:24:52.168Z,88.60
2022-10-12T04:27:19.699Z,88.90
2022-10-12T04:29:47.205Z,88.90
2022-10-12T04:32:14.558Z,88.90
2022-10-12T04:34:41.856Z,88.80
2022-10-12T04:37:09.166Z,89.00
2022-10-12T04:39:36.628Z,89.10
2022-10-12T04:42:04.257Z,89.30
2022-10-12T04:44:32.503Z,89.20
2022-10-12T04:47:01.367Z,89.40
2022-10-12T04:49:28.914Z,89.40
2022-10-12T04:51:56.372Z,89.80
2022-10-12T04:54:24.007Z,90.00
2022-10-12T04:56:51.542Z,90.00
2022-10-12T04:59:19.183Z,90.20
2022-10-12T05:01:46.829Z,90.10
2022-10-12T05:04:14.438Z,90.10
2022-10-12T05:06:42.268Z,90.70
2022-10-12T05:09:13.201Z,90.70
2022-10-12T05:11:43.450Z,90.90
2022-10-12T05:14:10.777Z,90.70
2022-10-12T05:16:38.490Z,90.30
2022-10-12T05:19:05.806Z,90.10
2022-10-12T05:21:34.081Z,90.20
2022-10-12T05:24:03.037Z,90.20
2022-10-12T05:26:30.366Z,90.20
2022-10-12T05:28:57.817Z,90.10
2022-10-12T05:31:25.402Z,90.20
2022-10-12T05:33:53.106Z,90.40
2022-10-12T05:36:20.479Z,90.30
2022-10-12T05:38:48.845Z,90.10
2022-10-12T05:41:16.238Z,90.20
2022-10-12T05:43:43.492Z,90.20
2022-10-12T05:46:14.252Z,90.30
2022-10-12T05:48:41.894Z,90.30
2022-10-12T05:51:09.149Z,90.60
2022-10-12T05:53:36.589Z,90.50
2022-10-12T05:56:04.156Z,91.00
2022-10-12T05:58:31.543Z,91.00
2022-10-12T06:01:10.567Z,91.00
2022-10-12T06:03:38.209Z,90.80
2022-10-12T06:06:06.872Z,90.70
2022-10-12T06:08:34.781Z,91.10
2022-10-12T06:11:02.438Z,90.60
2022-10-12T06:13:40.657Z,90.60
2022-10-12T06:16:08.217Z,90.50
2022-10-12T06:18:36.054Z,91.20
2022-10-12T06:27:23.975Z,91.00
2022-10-12T06:30:01.449Z,90.60
2022-10-12T06:32:38.018Z,91.00
2022-10-12T07:00:28.828Z,90.90
2022-10-12T07:03:01.942Z,90.70
2022-10-12T07:05:30.589Z,91.00
2022-10-12T07:08:01.652Z,91.00
2022-10-12T07:11:07.625Z,91.20
2022-10-12T07:17:14.623Z,91.30
2022-10-12T07:19:42.007Z,91.00
2022-10-12T07:22:09.681Z,91.00
2022-10-12T07:24:37.250Z,91.10
2022-10-12T07:27:10.391Z,91.20
2022-10-12T07:29:39.421Z,91.60
2022-10-12T07:35:17.606Z,91.40
2022-10-12T07:37:49.447Z,91.00
2022-10-12T07:40:27.001Z,91.30
2022-10-12T07:43:15.314Z,91.00
2022-10-12T07:46:08.108Z,91.20
2022-10-12T07:51:51.775Z,91.00
2022-10-12T07:54:29.016Z,90.70
2022-10-12T07:56:57.326Z,91.10
2022-10-12T07:59:25.222Z,90.80
2022-10-12T08:01:52.591Z,90.70
2022-10-12T08:04:20.212Z,90.50
2022-10-12T08:06:49.571Z,90.10
2022-10-12T08:09:17.898Z,89.50
2022-10-12T08:12:40.757Z,88.80
2022-10-12T08:15:14.752Z,90.10
2022-10-12T08:17:45.068Z,88.90
2022-10-12T08:20:14.306Z,87.00
2022-10-12T08:22:42.324Z,86.40
2022-10-12T08:25:10.384Z,85.30
2022-10-12T08:27:45.925Z,84.80
2022-10-12T08:30:14.817Z,83.30
2022-10-12T08:39:02.685Z,81.60
2022-10-12T08:41:52.247Z,80.60
2022-10-12T08:44:31.515Z,80.80
2022-10-12T08:47:27.197Z,80.80
2022-10-12T08:53:40.448Z,77.70
2022-10-12T08:56:10.798Z,77.20
2022-10-12T08:58:39.276Z,75.90
2022-10-12T09:01:19.579Z,75.80
2022-10-12T09:04:11.970Z,74.80
2022-10-12T09:07:00.874Z,75.60
2022-10-12T09:10:00.110Z,76.50
2022-10-12T09:35:37.495Z,73.00
2022-10-12T09:38:06.647Z,71.70
2022-10-12T09:41:00.628Z,70.60
2022-10-12T09:43:30.880Z,71.20
2022-10-12T09:46:07.255Z,69.80
2022-10-12T09:52:35.512Z,70.00
2022-10-12T09:55:15.251Z,71.60
2022-10-12T09:57:51.843Z,70.60
2022-10-12T10:00:34.681Z,70.80
2022-10-12T10:03:59.353Z,71.00
2022-10-12T10:06:27.509Z,71.00
2022-10-12T10:09:33.998Z,71.00
2022-10-12T10:12:24.871Z,72.00
2022-10-12T10:14:58.561Z,72.10
2022-10-12T10:17:33.906Z,72.40
2022-10-12T10:21:18.575Z,72.50
2022-10-12T10:23:59.227Z,73.30
2022-10-12T10:26:28.813Z,74.10
2022-10-12T10:29:15.548Z,74.50
2022-10-12T10:31:45.946Z,75.50
2022-10-12T10:34:22.005Z,74.90
2022-10-12T10:36:56.032Z,75.80
2022-10-12T10:39:32.152Z,75.00
2022-10-12T10:42:32.056Z,75.00
2022-10-12T10:45:21.507Z,74.90
2022-10-12T10:48:23.004Z,75.80
2022-10-12T10:51:46.595Z,75.10
2022-10-12T10:54:24.753Z,75.40
2022-10-12T10:57:20.707Z,75.70
2022-10-12T10:59:48.460Z,76.00
2022-10-12T11:07:41.357Z,76.20
2022-10-12T11:10:43.171Z,76.70
2022-10-12T11:13:29.330Z,76.70
2022-10-12T11:16:27.663Z,76.40
2022-10-12T11:18:58.961Z,77.00
2022-10-12T11:21:57.406Z,76.80
2022-10-12T11:25:36.359Z,77.10
2022-10-12T11:28:06.507Z,77.30
2022-10-12T11:30:45.341Z,77.70
2022-10-12T11:33:44.579Z,77.50
2022-10-12T11:36:16.833Z,77.20
2022-10-12T11:39:07.140Z,78.00
2022-10-12T11:42:09.608Z,78.10
2022-10-12T11:44:48.065Z,77.80
2022-10-12T11:47:49.355Z,77.40
2022-10-12T12:55:18.426Z,78.60
2022-10-12T12:58:04.736Z,77.70
2022-10-12T13:00:58.081Z,78.40
2022-10-12T13:03:49.002Z,77.60
2022-10-12T13:06:56.816Z,79.10
2022-10-12T13:10:01.977Z,78.20
2022-10-12T13:12:39.160Z,78.10
2022-10-12T13:15:07.955Z,77.60
2022-10-12T13:17:57.473Z,77.90
2022-10-12T13:20:31.983Z,77.90
2022-10-12T13:23:05.161Z,78.60
2022-10-12T13:25:51.524Z,79.10
2022-10-12T13:28:32.753Z,80.00
2022-10-12T13:31:05.118Z,78.40
2022-10-12T13:33:57.135Z,78.40
2022-10-12T13:36:28.190Z,79.20
2022-10-12T13:38:58.122Z,79.20
2022-10-12T13:41:30.316Z,78.50
2022-10-12T13:44:07.097Z,77.40
2022-10-12T13:46:46.272Z,77.80
2022-10-12T13:49:20.536Z,77.80
2022-10-12T13:51:51.378Z,78.70
2022-10-12T13:54:23.675Z,79.20
2022-10-12T13:56:58.956Z,80.10
2022-10-12T13:59:30.845Z,78.70
2022-10-12T14:02:01.537Z,78.70
2022-10-12T14:04:34.315Z,79.10
2022-10-12T14:07:11.606Z,78.90
2022-10-12T14:09:45.270Z,78.60
2022-10-12T14:12:13.915Z,79.60
2022-10-12T14:14:44.513Z,80.10
2022-10-12T14:17:19.571Z,79.40
2022-10-12T14:19:55.095Z,80.20
2022-10-12T14:22:32.558Z,79.80
2022-10-12T14:25:28.278Z,79.40
2022-10-12T14:28:06.815Z,79.80
2022-10-12T14:30:50.354Z,79.80
2022-10-12T14:33:18.100Z,79.60
2022-10-12T14:35:48.221Z,79.40
2022-10-12T14:38:39.595Z,79.20
2022-10-12T14:41:43.533Z,79.00
2022-10-12T14:44:13.393Z,78.70
2022-10-12T14:46:55.489Z,79.50
2022-10-12T14:49:39.335Z,79.30
2022-10-12T14:52:18.898Z,78.90
2022-10-12T14:54:53.579Z,78.60
2022-10-12T14:57:22.942Z,78.50
2022-10-12T14:59:50.249Z,79.50
2022-10-12T15:02:22.200Z,79.20
2022-10-12T15:04:49.963Z,78.90
2022-10-12T15:07:23.238Z,79.30
2022-10-12T15:09:51.009Z,79.40
2022-10-12T15:12:21.082Z,79.40
2022-10-12T15:14:49.986Z,79.50
2022-10-12T15:17:18.973Z,80.00
2022-10-12T15:19:48.915Z,80.00
2022-10-12T15:22:26.373Z,79.60
2022-10-12T15:24:55.065Z,79.50
2022-10-12T15:27:22.383Z,79.40
2022-10-12T15:29:49.828Z,79.70
2022-10-12T15:32:18.615Z,80.00
2022-10-12T15:34:46.228Z,80.30
2022-10-12T15:37:14.023Z,79.80
2022-10-12T15:39:42.626Z,79.90
2022-10-12T15:42:12.219Z,79.80
2022-10-12T15:44:41.475Z,79.70
2022-10-12T15:47:10.994Z,79.80
2022-10-12T15:49:38.724Z,80.70
2022-10-12T15:52:10.114Z,80.60
2022-10-12T15:54:37.670Z,80.90
2022-10-12T15:57:06.946Z,80.70
2022-10-12T15:59:34.705Z,80.80
2022-10-12T16:02:02.075Z,81.00
2022-10-12T16:04:29.573Z,81.00
2022-10-12T16:07:01.122Z,81.70
2022-10-12T16:09:28.532Z,81.30
2022-10-12T16:11:56.185Z,81.60
2022-10-12T16:14:26.707Z,81.40
2022-10-12T16:16:54.125Z,81.40
2022-10-12T16:19:21.532Z,81.50
2022-10-12T16:21:49.341Z,81.50
2022-10-12T16:24:16.651Z,81.40
2022-10-12T16:26:45.116Z,81.50
2022-10-12T16:29:12.510Z,81.80
2022-10-12T16:31:39.827Z,81.80
2022-10-12T16:34:07.153Z,82.20
2022-10-12T16:36:34.822Z,82.10
2022-10-12T16:39:02.499Z,82.00
2022-10-12T16:41:33.249Z,82.00
2022-10-12T16:44:01.794Z,82.10
2022-10-12T16:46:31.079Z,83.00
2022-10-12T16:48:58.392Z,83.00
2022-10-12T16:51:25.721Z,83.40
2022-10-12T16:53:53.374Z,83.20
2022-10-12T16:56:20.702Z,83.30
2022-10-12T16:58:50.103Z,83.60
2022-10-12T17:01:17.553Z,83.80
2022-10-12T17:03:45.001Z,83.80
2022-10-12T17:06:12.322Z,84.00
2022-10-12T17:08:40.018Z,84.20
2022-10-12T17:11:09.685Z,84.40
2022-10-12T17:13:38.214Z,85.00
2022-10-12T17:16:28.035Z,85.70
2022-10-12T17:18:59.267Z,84.90
2022-10-12T17:21:28.219Z,85.30
2022-10-12T17:24:05.940Z,85.10
2022-10-12T17:26:37.249Z,85.20
2022-10-12T17:29:08.017Z,85.80
2022-10-12T17:31:35.530Z,85.90
2022-10-12T17:34:02.859Z,86.40
2022-10-12T17:36:30.149Z,86.20
2022-10-12T17:38:58.714Z,86.40
2022-10-12T17:41:27.890Z,86.70
2022-10-12T17:43:55.673Z,86.70
2022-10-12T17:46:23.385Z,86.70
2022-10-12T17:48:51.041Z,86.80
2022-10-12T17:51:18.486Z,87.30
2022-10-12T17:53:46.022Z,86.80
2022-10-12T17:56:14.714Z,86.70
2022-10-12T17:58:42.903Z,86.70
2022-10-12T18:01:13.653Z,86.70
2022-10-12T18:03:42.725Z,86.90
2022-10-12T18:06:15.798Z,87.00
2022-10-12T18:08:43.772Z,86.80
2022-10-12T18:11:11.779Z,86.80
2022-10-12T18:13:39.225Z,87.00
2022-10-12T18:16:11.209Z,86.90
2022-10-12T18:18:39.246Z,86.70
2022-10-12T18:21:08.312Z,86.60
2022-10-12T18:23:35.694Z,86.70
2022-10-12T18:26:08.840Z,86.90
2022-10-12T18:28:36.854Z,86.90
2022-10-12T18:31:05.115Z,86.90
2022-10-12T18:33:33.555Z,86.90
2022-10-12T18:36:06.425Z,87.00
2022-10-12T18:38:34.253Z,87.30
2022-10-12T18:41:11.445Z,87.10
2022-10-12T18:43:39.214Z,87.00
2022-10-12T18:46:11.616Z,88.00
2022-10-12T18:48:39.204Z,87.20
2022-10-12T18:51:09.403Z,87.00
2022-10-12T18:53:36.935Z,87.00
2022-10-12T18:56:06.478Z,87.00
2022-10-12T18:58:34.302Z,87.40
2022-10-12T19:01:01.806Z,88.00
2022-10-12T19:03:29.507Z,87.50
2022-10-12T19:06:08.544Z,87.40
2022-10-12T19:08:36.730Z,87.30
2022-10-12T19:11:06.619Z,88.70
2022-10-12T19:13:35.789Z,87.80
2022-10-12T19:16:09.523Z,87.50
2022-10-12T19:18:37.810Z,87.40
2022-10-12T19:21:07.750Z,87.80
2022-10-12T19:23:35.912Z,87.60
2022-10-12T19:26:09.125Z,87.60
2022-10-12T19:28:36.803Z,87.60
2022-10-12T19:31:22.261Z,87.50
2022-10-12T19:33:49.774Z,88.20
2022-10-12T19:36:18.488Z,88.10
2022-10-12T19:38:46.258Z,87.70
2022-10-12T19:41:14.215Z,88.10
2022-10-12T19:43:46.519Z,88.30
2022-10-12T19:46:14.279Z,88.10
2022-10-12T19:48:42.550Z,88.50
2022-10-12T19:51:12.692Z,88.60
2022-10-12T19:53:56.456Z,88.30
2022-10-12T19:56:29.270Z,88.00
2022-10-12T19:58:58.152Z,87.90
2022-10-12T20:01:28.256Z,88.60
2022-10-12T20:03:55.751Z,88.30
2022-10-12T20:06:26.381Z,88.30
2022-10-12T20:08:55.180Z,88.30
2022-10-12T20:11:24.966Z,88.50
2022-10-12T20:13:53.183Z,88.60
2022-10-12T20:16:21.346Z,88.60
2022-10-12T20:18:49.683Z,88.20
2022-10-12T20:21:20.852Z,88.50
2022-10-12T20:23:49.514Z,88.20
2022-10-12T20:26:23.180Z,88.30
2022-10-12T20:28:54.777Z,88.80
2022-10-12T20:31:23.875Z,89.00
2022-10-12T20:33:52.747Z,89.20
2022-10-12T20:36:29.177Z,89.20
2022-10-12T20:39:00.338Z,89.40
2022-10-12T20:41:27.880Z,89.30
2022-10-12T20:43:57.456Z,89.10
2022-10-12T20:46:25.285Z,89.40
2022-10-12T20:48:58.759Z,89.00
2022-10-12T20:51:28.847Z,89.80
2022-10-12T20:54:01.080Z,89.70
2022-10-12T20:56:33.056Z,89.90
2022-10-12T20:59:01.133Z,89.90
2022-10-12T21:01:29.377Z,90.00
2022-10-12T21:03:57.472Z,89.80
2022-10-12T21:06:25.113Z,90.00
2022-10-12T21:08:54.758Z,89.70
2022-10-12T21:11:23.201Z,89.90
2022-10-12T21:13:51.005Z,90.10
2022-10-12T21:16:19.534Z,90.10
2022-10-12T21:18:47.037Z,90.00
2022-10-12T21:21:17.312Z,90.30
2022-10-12T21:23:51.897Z,90.40
2022-10-12T21:26:22.452Z,90.30
2022-10-12T21:28:50.819Z,90.60
2022-10-12T21:31:19.473Z,90.60
2022-10-12T21:33:47.301Z,90.70
2022-10-12T21:36:26.396Z,90.50
2022-10-12T21:38:54.514Z,90.70
2022-10-12T21:41:24.139Z,90.70
2022-10-12T21:43:52.519Z,90.50
2022-10-12T21:46:25.782Z,90.60
2022-10-12T21:48:54.562Z,90.80
2022-10-12T21:51:24.151Z,90.60
2022-10-12T21:53:52.546Z,90.60
2022-10-12T21:56:25.408Z,90.70
2022-10-12T21:58:54.142Z,90.60
2022-10-12T22:01:23.877Z,90.70
2022-10-12T22:03:56.035Z,90.50
2022-10-12T22:06:24.995Z,90.30
2022-10-12T22:09:01.300Z,90.40
2022-10-12T22:11:30.934Z,90.30
2022-10-12T22:14:06.075Z,90.20
2022-10-12T22:16:36.616Z,90.10
2022-10-12T22:19:06.802Z,90.10
2022-10-12T22:21:35.214Z,89.90
2022-10-12T22:24:02.707Z,89.80
2022-10-12T22:26:30.486Z,89.80
2022-10-12T22:29:00.464Z,89.80
2022-10-12T22:31:28.039Z,89.70
2022-10-12T22:33:56.825Z,89.60
2022-10-12T22:36:24.251Z,89.50
2022-10-12T22:38:51.629Z,89.20
2022-10-12T22:41:21.129Z,89.30
2022-10-12T22:43:54.150Z,89.30
2022-10-12T22:46:24.076Z,89.40
2022-10-12T22:48:52.704Z,89.50
2022-10-12T22:51:46.689Z,89.20
2022-10-12T22:54:14.163Z,88.70
2022-10-12T22:56:42.587Z,88.60
2022-10-12T22:59:15.284Z,88.60
2022-10-12T23:01:43.122Z,89.10
2022-10-12T23:04:11.012Z,88.70
2022-10-12T23:06:38.412Z,88.70
2022-10-12T23:09:05.771Z,89.00
2022-10-12T23:11:33.522Z,88.70
2022-10-12T23:14:00.962Z,88.60
2022-10-12T23:16:32.176Z,88.40
2022-10-12T23:19:02.807Z,88.70
2022-10-12T23:21:31.805Z,88.60
2022-10-12T23:24:00.377Z,89.00
2022-10-12T23:26:29.245Z,89.40
2022-10-12T23:28:57.231Z,89.60
2022-10-12T23:31:28.593Z,89.20
2022-10-12T23:34:01.372Z,89.20
2022-10-12T23:36:29.313Z,89.20
2022-10-12T23:38:58.979Z,89.40
2022-10-12T23:41:26.343Z,89.20
2022-10-12T23:43:53.761Z,89.30
2022-10-12T23:46:21.149Z,89.10
2022-10-12T23:48:48.648Z,89.10
2022-10-12T23:51:16.608Z,89.10
2022-10-12T23:53:44.647Z,88.70
2022-10-12T23:56:13.094Z,88.70
2022-10-12T23:58:40.779Z,88.70
